sensor_id;sensor_type;location;lat;lon;timestamp;P1;durP1;ratioP1;P2;durP2;ratioP2
21501;SDS011;27639;48.674;9.242;2023-02-15T00:01:39;27.13;;;19.30;;
21501;SDS011;27639;48.674;9.242;2023-02-15T00:04:06;31.17;;;21.55;;
21501;SDS011;27639;48.674;9.242;2023-02-15T00:06:33;28.65;;;19.45;;
21501;SDS011;27639;48.674;9.242;2023-02-15T00:08:59;27.63;;;18.73;;
21501;SDS011;27639;48.674;9.242;2023-02-15T00:11:25;26.40;;;17.77;;
21501;SDS011;27639;48.674;9.242;2023-02-15T00:14:15;25.95;;;17.55;;
21501;SDS011;27639;48.674;9.242;2023-02-15T00:16:43;23.42;;;16.50;;
21501;SDS011;27639;48.674;9.242;2023-02-15T00:19:09;23.85;;;15.85;;
21501;SDS011;27639;48.674;9.242;2023-02-15T00:21:36;23.02;;;15.27;;
21501;SDS011;27639;48.674;9.242;2023-02-15T00:24:03;22.98;;;15.05;;
21501;SDS011;27639;48.674;9.242;2023-02-15T00:26:29;22.13;;;15.05;;
21501;SDS011;27639;48.674;9.242;2023-02-15T00:28:55;24.48;;;15.80;;
21501;SDS011;27639;48.674;9.242;2023-02-15T00:31:25;22.20;;;14.82;;
21501;SDS011;27639;48.674;9.242;2023-02-15T00:33:55;23.40;;;14.85;;
21501;SDS011;27639;48.674;9.242;2023-02-15T00:36:26;22.67;;;15.15;;
21501;SDS011;27639;48.674;9.242;2023-02-15T00:38:51;23.55;;;15.65;;
21501;SDS011;27639;48.674;9.242;2023-02-15T00:41:17;23.50;;;16.05;;
21501;SDS011;27639;48.674;9.242;2023-02-15T00:43:42;25.90;;;16.83;;
21501;SDS011;27639;48.674;9.242;2023-02-15T00:46:08;23.83;;;15.85;;
21501;SDS011;27639;48.674;9.242;2023-02-15T00:48:33;24.95;;;15.20;;
21501;SDS011;27639;48.674;9.242;2023-02-15T00:50:59;26.45;;;17.13;;
21501;SDS011;27639;48.674;9.242;2023-02-15T00:53:26;22.27;;;15.15;;
21501;SDS011;27639;48.674;9.242;2023-02-15T00:55:53;24.80;;;17.23;;
21501;SDS011;27639;48.674;9.242;2023-02-15T00:58:18;24.98;;;16.77;;
21501;SDS011;27639;48.674;9.242;2023-02-15T01:00:45;24.48;;;16.98;;
21501;SDS011;27639;48.674;9.242;2023-02-15T01:03:12;27.73;;;17.50;;
21501;SDS011;27639;48.674;9.242;2023-02-15T01:05:39;27.35;;;18.15;;
21501;SDS011;27639;48.674;9.242;2023-02-15T01:08:05;26.52;;;17.52;;
21501;SDS011;27639;48.674;9.242;2023-02-15T01:10:31;27.42;;;18.48;;
21501;SDS011;27639;48.674;9.242;2023-02-15T01:12:58;30.05;;;17.52;;
21501;SDS011;27639;48.674;9.242;2023-02-15T01:15:24;26.45;;;16.63;;
21501;SDS011;27639;48.674;9.242;2023-02-15T01:17:49;24.92;;;16.42;;
21501;SDS011;27639;48.674;9.242;2023-02-15T01:20:19;26.80;;;18.02;;
21501;SDS011;27639;48.674;9.242;2023-02-15T01:22:46;30.33;;;18.63;;
21501;SDS011;27639;48.674;9.242;2023-02-15T01:25:14;30.40;;;18.40;;
21501;SDS011;27639;48.674;9.242;2023-02-15T01:27:41;29.50;;;19.05;;
21501;SDS011;27639;48.674;9.242;2023-02-15T01:30:06;27.17;;;17.30;;
21501;SDS011;27639;48.674;9.242;2023-02-15T01:32:33;27.70;;;17.33;;
21501;SDS011;27639;48.674;9.242;2023-02-15T01:34:59;26.77;;;17.40;;
21501;SDS011;27639;48.674;9.242;2023-02-15T01:37:24;25.35;;;17.58;;
21501;SDS011;27639;48.674;9.242;2023-02-15T01:39:50;23.77;;;16.38;;
21501;SDS011;27639;48.674;9.242;2023-02-15T01:42:20;25.08;;;15.68;;
21501;SDS011;27639;48.674;9.242;2023-02-15T01:44:52;24.95;;;16.30;;
21501;SDS011;27639;48.674;9.242;2023-02-15T01:47:24;23.33;;;15.55;;
21501;SDS011;27639;48.674;9.242;2023-02-15T01:50:00;22.90;;;16.17;;
21501;SDS011;27639;48.674;9.242;2023-02-15T01:52:40;24.20;;;15.43;;
21501;SDS011;27639;48.674;9.242;2023-02-15T01:55:11;22.63;;;14.80;;
21501;SDS011;27639;48.674;9.242;2023-02-15T01:57:37;23.70;;;15.73;;
21501;SDS011;27639;48.674;9.242;2023-02-15T02:00:04;24.17;;;15.25;;
21501;SDS011;27639;48.674;9.242;2023-02-15T02:02:31;25.02;;;16.27;;
21501;SDS011;27639;48.674;9.242;2023-02-15T02:05:00;28.50;;;16.33;;
21501;SDS011;27639;48.674;9.242;2023-02-15T02:07:31;23.52;;;15.00;;
21501;SDS011;27639;48.674;9.242;2023-02-15T02:09:59;22.38;;;15.23;;
21501;SDS011;27639;48.674;9.242;2023-02-15T02:12:26;22.35;;;15.25;;
21501;SDS011;27639;48.674;9.242;2023-02-15T02:14:51;23.67;;;15.73;;
21501;SDS011;27639;48.674;9.242;2023-02-15T02:17:27;26.65;;;15.80;;
21501;SDS011;27639;48.674;9.242;2023-02-15T02:25:42;23.33;;;14.35;;
21501;SDS011;27639;48.674;9.242;2023-02-15T02:34:39;21.60;;;14.65;;
21501;SDS011;27639;48.674;9.242;2023-02-15T02:40:16;22.70;;;15.38;;
21501;SDS011;27639;48.674;9.242;2023-02-15T02:45:29;24.45;;;15.43;;
21501;SDS011;27639;48.674;9.242;2023-02-15T02:48:09;23.98;;;15.65;;
21501;SDS011;27639;48.674;9.242;2023-02-15T02:50:39;21.02;;;14.40;;
21501;SDS011;27639;48.674;9.242;2023-02-15T02:53:05;25.13;;;15.30;;
21501;SDS011;27639;48.674;9.242;2023-02-15T02:55:33;22.60;;;14.60;;
21501;SDS011;27639;48.674;9.242;2023-02-15T02:58:38;25.98;;;15.68;;
21501;SDS011;27639;48.674;9.242;2023-02-15T03:01:09;22.23;;;14.60;;
21501;SDS011;27639;48.674;9.242;2023-02-15T03:03:50;23.83;;;14.23;;
21501;SDS011;27639;48.674;9.242;2023-02-15T03:09:21;22.55;;;14.73;;
21501;SDS011;27639;48.674;9.242;2023-02-15T03:11:48;28.15;;;16.73;;
21501;SDS011;27639;48.674;9.242;2023-02-15T03:14:15;25.90;;;16.63;;
21501;SDS011;27639;48.674;9.242;2023-02-15T03:16:43;21.65;;;15.38;;
21501;SDS011;27639;48.674;9.242;2023-02-15T03:19:13;23.83;;;15.75;;
21501;SDS011;27639;48.674;9.242;2023-02-15T03:21:47;24.65;;;16.30;;
21501;SDS011;27639;48.674;9.242;2023-02-15T03:24:22;24.13;;;16.33;;
21501;SDS011;27639;48.674;9.242;2023-02-15T03:26:50;24.15;;;16.33;;
21501;SDS011;27639;48.674;9.242;2023-02-15T03:29:19;25.90;;;16.38;;
21501;SDS011;27639;48.674;9.242;2023-02-15T03:31:46;23.60;;;15.30;;
21501;SDS011;27639;48.674;9.242;2023-02-15T03:34:16;21.92;;;14.23;;
21501;SDS011;27639;48.674;9.242;2023-02-15T03:36:48;22.30;;;15.23;;
21501;SDS011;27639;48.674;9.242;2023-02-15T03:44:32;23.60;;;14.85;;
21501;SDS011;27639;48.674;9.242;2023-02-15T03:47:05;24.73;;;15.32;;
21501;SDS011;27639;48.674;9.242;2023-02-15T03:49:44;21.50;;;15.02;;
21501;SDS011;27639;48.674;9.242;2023-02-15T03:52:18;22.30;;;14.68;;
21501;SDS011;27639;48.674;9.242;2023-02-15T03:54:45;25.48;;;15.30;;
21501;SDS011;27639;48.674;9.242;2023-02-15T03:59:57;26.55;;;16.17;;
21501;SDS011;27639;48.674;9.242;2023-02-15T04:05:23;21.05;;;14.23;;
21501;SDS011;27639;48.674;9.242;2023-02-15T04:07:48;21.60;;;14.35;;
21501;SDS011;27639;48.674;9.242;2023-02-15T04:10:14;21.58;;;13.90;;
21501;SDS011;27639;48.674;9.242;2023-02-15T04:12:58;22.05;;;13.85;;
21501;SDS011;27639;48.674;9.242;2023-02-15T04:15:24;22.65;;;14.60;;
21501;SDS011;27639;48.674;9.242;2023-02-15T04:18:15;22.48;;;14.40;;
21501;SDS011;27639;48.674;9.242;2023-02-15T04:20:44;21.52;;;13.93;;
21501;SDS011;27639;48.674;9.242;2023-02-15T04:23:29;20.40;;;13.88;;
21501;SDS011;27639;48.674;9.242;2023-02-15T04:28:39;20.50;;;13.63;;
21501;SDS011;27639;48.674;9.242;2023-02-15T04:31:04;22.17;;;14.90;;
21501;SDS011;27639;48.674;9.242;2023-02-15T04:33:30;22.00;;;14.50;;
21501;SDS011;27639;48.674;9.242;2023-02-15T04:35:55;22.25;;;14.23;;
21501;SDS011;27639;48.674;9.242;2023-02-15T04:38:21;23.25;;;14.55;;
21501;SDS011;27639;48.674;9.242;2023-02-15T04:40:50;25.33;;;15.05;;
21501;SDS011;27639;48.674;9.242;2023-02-15T04:43:17;20.30;;;13.82;;
21501;SDS011;27639;48.674;9.242;2023-02-15T04:45:48;24.98;;;15.48;;
21501;SDS011;27639;48.674;9.242;2023-02-15T04:48:15;23.98;;;14.65;;
21501;SDS011;27639;48.674;9.242;2023-02-15T04:50:41;24.10;;;14.63;;
21501;SDS011;27639;48.674;9.242;2023-02-15T04:53:07;24.05;;;14.43;;
21501;SDS011;27639;48.674;9.242;2023-02-15T04:55:32;22.05;;;13.77;;
21501;SDS011;27639;48.674;9.242;2023-02-15T04:57:58;22.73;;;14.02;;
21501;SDS011;27639;48.674;9.242;2023-02-15T05:00:24;22.77;;;14.43;;
21501;SDS011;27639;48.674;9.242;2023-02-15T05:02:49;20.98;;;13.65;;
21501;SDS011;27639;48.674;9.242;2023-02-15T05:05:15;23.05;;;14.95;;
21501;SDS011;27639;48.674;9.242;2023-02-15T05:07:40;22.42;;;14.63;;
21501;SDS011;27639;48.674;9.242;2023-02-15T05:10:06;22.35;;;13.90;;
21501;SDS011;27639;48.674;9.242;2023-02-15T05:12:32;23.48;;;15.27;;
21501;SDS011;27639;48.674;9.242;2023-02-15T05:14:57;23.65;;;15.95;;
21501;SDS011;27639;48.674;9.242;2023-02-15T05:17:23;20.60;;;14.68;;
21501;SDS011;27639;48.674;9.242;2023-02-15T05:19:48;23.17;;;15.18;;
21501;SDS011;27639;48.674;9.242;2023-02-15T05:22:14;24.80;;;15.05;;
21501;SDS011;27639;48.674;9.242;2023-02-15T05:24:40;22.65;;;15.02;;
21501;SDS011;27639;48.674;9.242;2023-02-15T05:27:24;22.17;;;14.45;;
21501;SDS011;27639;48.674;9.242;2023-02-15T05:30:08;21.17;;;13.98;;
21501;SDS011;27639;48.674;9.242;2023-02-15T05:32:36;20.30;;;13.57;;
21501;SDS011;27639;48.674;9.242;2023-02-15T05:35:03;21.10;;;13.48;;
21501;SDS011;27639;48.674;9.242;2023-02-15T05:37:29;21.27;;;14.25;;
21501;SDS011;27639;48.674;9.242;2023-02-15T05:39:55;20.50;;;13.95;;
21501;SDS011;27639;48.674;9.242;2023-02-15T05:42:20;20.58;;;14.18;;
21501;SDS011;27639;48.674;9.242;2023-02-15T05:44:46;19.27;;;13.57;;
21501;SDS011;27639;48.674;9.242;2023-02-15T05:47:11;20.02;;;13.65;;
21501;SDS011;27639;48.674;9.242;2023-02-15T05:49:37;20.52;;;14.10;;
21501;SDS011;27639;48.674;9.242;2023-02-15T05:52:03;18.38;;;13.85;;
21501;SDS011;27639;48.674;9.242;2023-02-15T05:54:29;20.27;;;13.98;;
21501;SDS011;27639;48.674;9.242;2023-02-15T05:56:54;19.75;;;13.45;;
21501;SDS011;27639;48.674;9.242;2023-02-15T05:59:20;22.17;;;14.43;;
21501;SDS011;27639;48.674;9.242;2023-02-15T06:01:45;22.50;;;14.63;;
21501;SDS011;27639;48.674;9.242;2023-02-15T06:04:12;21.55;;;14.98;;
21501;SDS011;27639;48.674;9.242;2023-02-15T06:06:37;21.00;;;14.18;;
21501;SDS011;27639;48.674;9.242;2023-02-15T06:09:03;22.80;;;15.13;;
21501;SDS011;27639;48.674;9.242;2023-02-15T06:11:28;22.10;;;14.48;;
21501;SDS011;27639;48.674;9.242;2023-02-15T06:13:54;20.95;;;14.82;;
21501;SDS011;27639;48.674;9.242;2023-02-15T06:16:19;21.38;;;14.48;;
21501;SDS011;27639;48.674;9.242;2023-02-15T06:18:45;20.95;;;14.52;;
21501;SDS011;27639;48.674;9.242;2023-02-15T06:21:11;23.83;;;15.55;;
21501;SDS011;27639;48.674;9.242;2023-02-15T06:23:36;22.20;;;15.43;;
21501;SDS011;27639;48.674;9.242;2023-02-15T06:26:02;22.77;;;15.32;;
21501;SDS011;27639;48.674;9.242;2023-02-15T06:28:28;24.02;;;16.80;;
21501;SDS011;27639;48.674;9.242;2023-02-15T06:30:54;23.42;;;16.23;;
21501;SDS011;27639;48.674;9.242;2023-02-15T06:33:19;22.75;;;15.57;;
21501;SDS011;27639;48.674;9.242;2023-02-15T06:35:45;19.88;;;14.80;;
21501;SDS011;27639;48.674;9.242;2023-02-15T06:38:11;23.98;;;15.80;;
21501;SDS011;27639;48.674;9.242;2023-02-15T06:40:37;21.98;;;14.80;;
21501;SDS011;27639;48.674;9.242;2023-02-15T06:43:02;22.65;;;15.98;;
21501;SDS011;27639;48.674;9.242;2023-02-15T06:45:28;22.38;;;15.50;;
21501;SDS011;27639;48.674;9.242;2023-02-15T06:47:53;24.40;;;16.15;;
21501;SDS011;27639;48.674;9.242;2023-02-15T06:50:19;23.10;;;15.38;;
21501;SDS011;27639;48.674;9.242;2023-02-15T06:52:44;23.60;;;16.20;;
21501;SDS011;27639;48.674;9.242;2023-02-15T06:55:10;28.00;;;16.23;;
21501;SDS011;27639;48.674;9.242;2023-02-15T06:57:36;23.13;;;16.88;;
21501;SDS011;27639;48.674;9.242;2023-02-15T07:00:01;24.40;;;16.75;;
21501;SDS011;27639;48.674;9.242;2023-02-15T07:02:29;25.15;;;17.40;;
21501;SDS011;27639;48.674;9.242;2023-02-15T07:04:56;22.05;;;16.70;;
21501;SDS011;27639;48.674;9.242;2023-02-15T07:07:22;24.17;;;16.48;;
21501;SDS011;27639;48.674;9.242;2023-02-15T07:09:48;23.02;;;16.65;;
21501;SDS011;27639;48.674;9.242;2023-02-15T07:12:13;23.75;;;17.13;;
21501;SDS011;27639;48.674;9.242;2023-02-15T07:14:57;25.30;;;17.23;;
21501;SDS011;27639;48.674;9.242;2023-02-15T07:17:23;22.20;;;15.88;;
21501;SDS011;27639;48.674;9.242;2023-02-15T07:19:49;24.65;;;16.10;;
21501;SDS011;27639;48.674;9.242;2023-02-15T07:22:14;23.13;;;16.13;;
21501;SDS011;27639;48.674;9.242;2023-02-15T07:24:40;22.92;;;16.48;;
21501;SDS011;27639;48.674;9.242;2023-02-15T07:27:06;23.05;;;15.80;;
21501;SDS011;27639;48.674;9.242;2023-02-15T07:29:32;27.92;;;16.63;;
21501;SDS011;27639;48.674;9.242;2023-02-15T07:31:58;26.70;;;16.08;;
21501;SDS011;27639;48.674;9.242;2023-02-15T07:34:23;23.33;;;15.27;;
21501;SDS011;27639;48.674;9.242;2023-02-15T07:36:50;20.83;;;14.73;;
21501;SDS011;27639;48.674;9.242;2023-02-15T07:39:16;25.40;;;15.07;;
21501;SDS011;27639;48.674;9.242;2023-02-15T07:41:41;24.08;;;15.25;;
21501;SDS011;27639;48.674;9.242;2023-02-15T07:44:10;21.05;;;14.25;;
21501;SDS011;27639;48.674;9.242;2023-02-15T07:46:38;24.95;;;15.15;;
21501;SDS011;27639;48.674;9.242;2023-02-15T07:49:04;23.40;;;15.48;;
21501;SDS011;27639;48.674;9.242;2023-02-15T07:51:29;23.20;;;14.90;;
21501;SDS011;27639;48.674;9.242;2023-02-15T07:53:55;24.85;;;14.75;;
21501;SDS011;27639;48.674;9.242;2023-02-15T07:56:20;20.40;;;14.93;;
21501;SDS011;27639;48.674;9.242;2023-02-15T07:58:46;22.20;;;14.68;;
21501;SDS011;27639;48.674;9.242;2023-02-15T08:01:24;22.50;;;15.13;;
21501;SDS011;27639;48.674;9.242;2023-02-15T08:03:50;23.80;;;15.80;;
21501;SDS011;27639;48.674;9.242;2023-02-15T08:06:16;21.63;;;15.40;;
21501;SDS011;27639;48.674;9.242;2023-02-15T08:08:42;22.65;;;16.05;;
21501;SDS011;27639;48.674;9.242;2023-02-15T08:11:21;24.20;;;16.58;;
21501;SDS011;27639;48.674;9.242;2023-02-15T08:14:06;23.55;;;15.85;;
21501;SDS011;27639;48.674;9.242;2023-02-15T08:19:06;23.40;;;15.40;;
21501;SDS011;27639;48.674;9.242;2023-02-15T08:21:33;23.58;;;15.32;;
21501;SDS011;27639;48.674;9.242;2023-02-15T08:24:00;23.65;;;15.82;;
21501;SDS011;27639;48.674;9.242;2023-02-15T08:26:26;22.77;;;16.05;;
21501;SDS011;27639;48.674;9.242;2023-02-15T08:28:52;19.20;;;14.38;;
21501;SDS011;27639;48.674;9.242;2023-02-15T08:31:19;24.85;;;16.95;;
21501;SDS011;27639;48.674;9.242;2023-02-15T08:33:45;24.15;;;17.23;;
21501;SDS011;27639;48.674;9.242;2023-02-15T08:36:13;19.63;;;15.15;;
21501;SDS011;27639;48.674;9.242;2023-02-15T08:38:40;24.98;;;16.15;;
21501;SDS011;27639;48.674;9.242;2023-02-15T08:41:26;27.58;;;17.50;;
21501;SDS011;27639;48.674;9.242;2023-02-15T08:44:00;23.95;;;16.23;;
21501;SDS011;27639;48.674;9.242;2023-02-15T08:46:29;26.75;;;17.63;;
21501;SDS011;27639;48.674;9.242;2023-02-15T08:48:56;28.00;;;17.08;;
21501;SDS011;27639;48.674;9.242;2023-02-15T08:51:23;28.63;;;17.85;;
21501;SDS011;27639;48.674;9.242;2023-02-15T08:53:55;23.88;;;16.10;;
21501;SDS011;27639;48.674;9.242;2023-02-15T08:56:25;24.67;;;17.83;;
21501;SDS011;27639;48.674;9.242;2023-02-15T08:58:53;26.90;;;17.02;;
21501;SDS011;27639;48.674;9.242;2023-02-15T09:01:20;29.25;;;18.27;;
21501;SDS011;27639;48.674;9.242;2023-02-15T09:03:48;24.92;;;16.33;;
21501;SDS011;27639;48.674;9.242;2023-02-15T09:06:15;23.83;;;16.15;;
21501;SDS011;27639;48.674;9.242;2023-02-15T09:08:41;28.00;;;17.33;;
21501;SDS011;27639;48.674;9.242;2023-02-15T09:11:11;25.77;;;16.27;;
21501;SDS011;27639;48.674;9.242;2023-02-15T09:13:47;24.92;;;16.83;;
21501;SDS011;27639;48.674;9.242;2023-02-15T09:16:13;26.48;;;17.67;;
21501;SDS011;27639;48.674;9.242;2023-02-15T09:18:41;22.75;;;16.85;;
21501;SDS011;27639;48.674;9.242;2023-02-15T09:21:14;24.27;;;16.80;;
21501;SDS011;27639;48.674;9.242;2023-02-15T09:23:42;23.38;;;17.55;;
21501;SDS011;27639;48.674;9.242;2023-02-15T09:26:10;22.42;;;16.10;;
21501;SDS011;27639;48.674;9.242;2023-02-15T09:28:37;23.25;;;16.65;;
21501;SDS011;27639;48.674;9.242;2023-02-15T09:31:14;24.25;;;17.27;;
21501;SDS011;27639;48.674;9.242;2023-02-15T09:33:45;23.42;;;16.83;;
21501;SDS011;27639;48.674;9.242;2023-02-15T09:36:25;24.23;;;17.83;;
21501;SDS011;27639;48.674;9.242;2023-02-15T09:38:56;21.70;;;16.35;;
21501;SDS011;27639;48.674;9.242;2023-02-15T09:52:06;24.30;;;17.00;;
21501;SDS011;27639;48.674;9.242;2023-02-15T09:57:51;22.83;;;17.35;;
21501;SDS011;27639;48.674;9.242;2023-02-15T10:00:35;22.25;;;17.98;;
21501;SDS011;27639;48.674;9.242;2023-02-15T10:03:26;21.55;;;16.65;;
21501;SDS011;27639;48.674;9.242;2023-02-15T10:06:10;21.20;;;16.60;;
21501;SDS011;27639;48.674;9.242;2023-02-15T10:11:36;21.90;;;16.73;;
21501;SDS011;27639;48.674;9.242;2023-02-15T10:17:30;22.45;;;16.45;;
21501;SDS011;27639;48.674;9.242;2023-02-15T10:20:23;22.98;;;16.02;;
21501;SDS011;27639;48.674;9.242;2023-02-15T10:28:09;20.83;;;15.77;;
21501;SDS011;27639;48.674;9.242;2023-02-15T10:31:36;20.00;;;14.30;;
21501;SDS011;27639;48.674;9.242;2023-02-15T10:34:15;20.80;;;15.10;;
21501;SDS011;27639;48.674;9.242;2023-02-15T10:37:10;21.75;;;15.20;;
21501;SDS011;27639;48.674;9.242;2023-02-15T10:42:30;21.65;;;14.77;;
21501;SDS011;27639;48.674;9.242;2023-02-15T10:45:27;18.80;;;13.13;;
21501;SDS011;27639;48.674;9.242;2023-02-15T10:56:24;16.45;;;13.00;;
21501;SDS011;27639;48.674;9.242;2023-02-15T11:01:37;17.58;;;12.32;;
21501;SDS011;27639;48.674;9.242;2023-02-15T11:06:43;15.77;;;12.02;;
21501;SDS011;27639;48.674;9.242;2023-02-15T11:09:16;16.90;;;12.27;;
21501;SDS011;27639;48.674;9.242;2023-02-15T11:11:47;17.70;;;12.75;;
21501;SDS011;27639;48.674;9.242;2023-02-15T11:14:17;20.27;;;13.00;;
21501;SDS011;27639;48.674;9.242;2023-02-15T11:16:52;18.02;;;13.02;;
21501;SDS011;27639;48.674;9.242;2023-02-15T11:19:31;15.23;;;12.02;;
21501;SDS011;27639;48.674;9.242;2023-02-15T11:22:01;19.17;;;12.82;;
21501;SDS011;27639;48.674;9.242;2023-02-15T11:24:29;18.92;;;13.48;;
21501;SDS011;27639;48.674;9.242;2023-02-15T11:32:19;15.90;;;12.27;;
21501;SDS011;27639;48.674;9.242;2023-02-15T11:35:06;18.98;;;13.40;;
21501;SDS011;27639;48.674;9.242;2023-02-15T11:40:25;18.88;;;12.32;;
21501;SDS011;27639;48.674;9.242;2023-02-15T11:42:56;15.82;;;11.57;;
21501;SDS011;27639;48.674;9.242;2023-02-15T11:45:30;17.38;;;12.20;;
21501;SDS011;27639;48.674;9.242;2023-02-15T11:47:59;16.13;;;12.25;;
21501;SDS011;27639;48.674;9.242;2023-02-15T11:50:27;19.20;;;12.88;;
21501;SDS011;27639;48.674;9.242;2023-02-15T11:52:59;16.02;;;12.70;;
21501;SDS011;27639;48.674;9.242;2023-02-15T11:55:31;15.07;;;11.98;;
21501;SDS011;27639;48.674;9.242;2023-02-15T12:00:43;16.52;;;12.98;;
21501;SDS011;27639;48.674;9.242;2023-02-15T12:03:15;17.42;;;12.75;;
21501;SDS011;27639;48.674;9.242;2023-02-15T12:05:45;17.17;;;11.73;;
21501;SDS011;27639;48.674;9.242;2023-02-15T12:08:20;17.05;;;11.73;;
21501;SDS011;27639;48.674;9.242;2023-02-15T12:13:22;17.23;;;11.63;;
21501;SDS011;27639;48.674;9.242;2023-02-15T12:15:52;14.85;;;12.73;;
21501;SDS011;27639;48.674;9.242;2023-02-15T12:21:02;18.08;;;13.05;;
21501;SDS011;27639;48.674;9.242;2023-02-15T12:23:33;18.05;;;13.20;;
21501;SDS011;27639;48.674;9.242;2023-02-15T12:26:06;17.67;;;13.52;;
21501;SDS011;27639;48.674;9.242;2023-02-15T12:28:35;17.77;;;12.88;;
21501;SDS011;27639;48.674;9.242;2023-02-15T12:33:52;17.23;;;13.43;;
21501;SDS011;27639;48.674;9.242;2023-02-15T12:36:20;19.45;;;13.65;;
21501;SDS011;27639;48.674;9.242;2023-02-15T12:39:09;22.38;;;13.10;;
21501;SDS011;27639;48.674;9.242;2023-02-15T12:41:57;15.57;;;12.68;;
21501;SDS011;27639;48.674;9.242;2023-02-15T12:44:25;17.85;;;13.15;;
21501;SDS011;27639;48.674;9.242;2023-02-15T12:47:27;19.27;;;13.77;;
21501;SDS011;27639;48.674;9.242;2023-02-15T12:50:07;19.50;;;13.47;;
21501;SDS011;27639;48.674;9.242;2023-02-15T12:52:41;18.43;;;13.97;;
21501;SDS011;27639;48.674;9.242;2023-02-15T12:55:24;18.67;;;13.55;;
21501;SDS011;27639;48.674;9.242;2023-02-15T12:58:04;17.73;;;11.55;;
21501;SDS011;27639;48.674;9.242;2023-02-15T13:00:44;18.55;;;12.38;;
21501;SDS011;27639;48.674;9.242;2023-02-15T13:03:17;17.73;;;13.50;;
21501;SDS011;27639;48.674;9.242;2023-02-15T13:05:46;16.80;;;12.88;;
21501;SDS011;27639;48.674;9.242;2023-02-15T13:08:16;18.70;;;14.43;;
21501;SDS011;27639;48.674;9.242;2023-02-15T13:13:25;18.05;;;14.02;;
21501;SDS011;27639;48.674;9.242;2023-02-15T13:15:55;20.17;;;15.20;;
21501;SDS011;27639;48.674;9.242;2023-02-15T13:18:43;24.50;;;15.75;;
21501;SDS011;27639;48.674;9.242;2023-02-15T13:21:12;20.93;;;14.90;;
21501;SDS011;27639;48.674;9.242;2023-02-15T13:23:44;20.70;;;15.60;;
21501;SDS011;27639;48.674;9.242;2023-02-15T13:26:17;21.27;;;15.20;;
21501;SDS011;27639;48.674;9.242;2023-02-15T13:28:46;19.83;;;14.63;;
21501;SDS011;27639;48.674;9.242;2023-02-15T13:31:19;17.52;;;14.02;;
21501;SDS011;27639;48.674;9.242;2023-02-15T13:33:54;18.92;;;14.50;;
21501;SDS011;27639;48.674;9.242;2023-02-15T13:36:37;19.02;;;14.38;;
21501;SDS011;27639;48.674;9.242;2023-02-15T13:42:00;17.73;;;13.95;;
21501;SDS011;27639;48.674;9.242;2023-02-15T13:47:20;16.98;;;12.60;;
21501;SDS011;27639;48.674;9.242;2023-02-15T13:55:36;16.20;;;11.48;;
21501;SDS011;27639;48.674;9.242;2023-02-15T13:58:35;15.00;;;11.27;;
21501;SDS011;27639;48.674;9.242;2023-02-15T14:12:16;16.00;;;11.57;;
21501;SDS011;27639;48.674;9.242;2023-02-15T14:17:43;17.90;;;12.50;;
21501;SDS011;27639;48.674;9.242;2023-02-15T14:34:08;18.23;;;13.80;;
21501;SDS011;27639;48.674;9.242;2023-02-15T14:36:40;23.42;;;14.13;;
21501;SDS011;27639;48.674;9.242;2023-02-15T14:42:24;17.25;;;13.63;;
21501;SDS011;27639;48.674;9.242;2023-02-15T14:45:12;17.90;;;14.38;;
21501;SDS011;27639;48.674;9.242;2023-02-15T14:47:45;21.80;;;14.52;;
21501;SDS011;27639;48.674;9.242;2023-02-15T14:55:41;17.65;;;14.48;;
21501;SDS011;27639;48.674;9.242;2023-02-15T14:58:10;20.45;;;14.85;;
21501;SDS011;27639;48.674;9.242;2023-02-15T15:00:38;21.20;;;14.18;;
21501;SDS011;27639;48.674;9.242;2023-02-15T15:03:17;22.85;;;16.30;;
21501;SDS011;27639;48.674;9.242;2023-02-15T15:05:48;19.02;;;15.32;;
21501;SDS011;27639;48.674;9.242;2023-02-15T15:08:24;20.00;;;15.15;;
21501;SDS011;27639;48.674;9.242;2023-02-15T15:11:37;24.40;;;15.10;;
21501;SDS011;27639;48.674;9.242;2023-02-15T15:14:23;20.30;;;13.85;;
21501;SDS011;27639;48.674;9.242;2023-02-15T15:16:56;23.02;;;15.57;;
21501;SDS011;27639;48.674;9.242;2023-02-15T15:22:25;17.48;;;14.27;;
21501;SDS011;27639;48.674;9.242;2023-02-15T15:30:48;20.65;;;14.27;;
21501;SDS011;27639;48.674;9.242;2023-02-15T15:35:27;23.05;;;14.20;;
21501;SDS011;27639;48.674;9.242;2023-02-15T15:43:51;20.83;;;14.57;;
21501;SDS011;27639;48.674;9.242;2023-02-15T15:49:34;26.90;;;14.35;;
21501;SDS011;27639;48.674;9.242;2023-02-15T15:52:01;21.55;;;14.98;;
21501;SDS011;27639;48.674;9.242;2023-02-15T15:54:33;18.75;;;14.55;;
21501;SDS011;27639;48.674;9.242;2023-02-15T15:57:01;29.83;;;22.23;;
21501;SDS011;27639;48.674;9.242;2023-02-15T15:59:32;22.67;;;16.35;;
21501;SDS011;27639;48.674;9.242;2023-02-15T16:02:06;20.85;;;14.65;;
21501;SDS011;27639;48.674;9.242;2023-02-15T16:04:33;21.13;;;13.85;;
21501;SDS011;27639;48.674;9.242;2023-02-15T16:09:53;19.65;;;14.40;;
21501;SDS011;27639;48.674;9.242;2023-02-15T16:12:18;22.48;;;14.70;;
21501;SDS011;27639;48.674;9.242;2023-02-15T16:14:44;20.73;;;14.25;;
21501;SDS011;27639;48.674;9.242;2023-02-15T16:17:36;21.80;;;14.23;;
21501;SDS011;27639;48.674;9.242;2023-02-15T16:20:03;22.83;;;14.52;;
21501;SDS011;27639;48.674;9.242;2023-02-15T16:22:38;21.00;;;15.00;;
21501;SDS011;27639;48.674;9.242;2023-02-15T16:28:11;22.08;;;14.68;;
21501;SDS011;27639;48.674;9.242;2023-02-15T16:30:37;22.20;;;13.88;;
21501;SDS011;27639;48.674;9.242;2023-02-15T16:33:14;23.70;;;14.18;;
21501;SDS011;27639;48.674;9.242;2023-02-15T16:35:52;20.73;;;14.65;;
21501;SDS011;27639;48.674;9.242;2023-02-15T16:38:30;23.10;;;14.50;;
21501;SDS011;27639;48.674;9.242;2023-02-15T16:41:09;21.23;;;14.52;;
21501;SDS011;27639;48.674;9.242;2023-02-15T16:43:40;21.60;;;14.48;;
21501;SDS011;27639;48.674;9.242;2023-02-15T16:46:11;21.15;;;14.27;;
21501;SDS011;27639;48.674;9.242;2023-02-15T16:48:48;23.73;;;15.13;;
21501;SDS011;27639;48.674;9.242;2023-02-15T16:51:23;22.00;;;14.88;;
21501;SDS011;27639;48.674;9.242;2023-02-15T16:53:52;22.75;;;14.93;;
21501;SDS011;27639;48.674;9.242;2023-02-15T16:56:23;22.48;;;15.80;;
21501;SDS011;27639;48.674;9.242;2023-02-15T16:58:51;23.92;;;15.13;;
21501;SDS011;27639;48.674;9.242;2023-02-15T17:01:19;20.27;;;14.60;;
21501;SDS011;27639;48.674;9.242;2023-02-15T17:03:48;22.95;;;16.40;;
21501;SDS011;27639;48.674;9.242;2023-02-15T17:06:23;22.25;;;15.02;;
21501;SDS011;27639;48.674;9.242;2023-02-15T17:08:51;25.08;;;16.52;;
21501;SDS011;27639;48.674;9.242;2023-02-15T17:11:37;24.70;;;16.23;;
21501;SDS011;27639;48.674;9.242;2023-02-15T17:19:01;27.02;;;15.85;;
21501;SDS011;27639;48.674;9.242;2023-02-15T17:21:33;23.88;;;16.70;;
21501;SDS011;27639;48.674;9.242;2023-02-15T17:24:05;25.58;;;17.15;;
21501;SDS011;27639;48.674;9.242;2023-02-15T17:26:32;25.92;;;17.73;;
21501;SDS011;27639;48.674;9.242;2023-02-15T17:31:46;30.45;;;21.80;;
21501;SDS011;27639;48.674;9.242;2023-02-15T17:37:11;48.60;;;30.48;;
21501;SDS011;27639;48.674;9.242;2023-02-15T17:39:38;44.08;;;28.88;;
21501;SDS011;27639;48.674;9.242;2023-02-15T17:42:05;46.55;;;27.92;;
21501;SDS011;27639;48.674;9.242;2023-02-15T17:44:31;37.25;;;23.20;;
21501;SDS011;27639;48.674;9.242;2023-02-15T17:46:56;42.92;;;27.52;;